N378TB KLAX-KVNY
Flight info
| Callsign | N378TB |
|---|---|
| Flight time | 0h 16m |
| Altitude | 10000 |
| Route | VTU FIM |
| Aircraft | E190/M-SDE1E2E3FGHIJ3J4J7P2RWXY/LB1D1G1 |
Departure
| Time | 2026-04-26 17:31 |
|---|---|
| Airport | Los Angeles International Airport (KLAX) |
Arrival
| Time | 2026-04-26 17:47 |
|---|---|
| Airport | Van Nuys Airport (KVNY) |
| Time | Latitude | Longitude | Altitude | Speed | Heading |
|---|---|---|---|---|---|
| 2026-04-26 17:08 | 33.93261 | -118.39809 | 119 ft | 0 kts | 354° |
| 2026-04-26 17:27 | 33.93265 | -118.39809 | 118 ft | 3 kts | 354° |
| 2026-04-26 17:27 | 33.93314 | -118.39814 | 115 ft | 10 kts | 358° |
| 2026-04-26 17:27 | 33.93389 | -118.39817 | 115 ft | 8 kts | 356° |
| 2026-04-26 17:27 | 33.93449 | -118.39810 | 115 ft | 9 kts | 44° |
| 2026-04-26 17:28 | 33.93466 | -118.39719 | 114 ft | 14 kts | 83° |
| 2026-04-26 17:28 | 33.93483 | -118.39570 | 112 ft | 21 kts | 81° |
| 2026-04-26 17:28 | 33.93501 | -118.39370 | 110 ft | 25 kts | 82° |
| 2026-04-26 17:28 | 33.93525 | -118.39151 | 108 ft | 27 kts | 83° |
| 2026-04-26 17:29 | 33.93548 | -118.38916 | 106 ft | 29 kts | 82° |
| 2026-04-26 17:29 | 33.93567 | -118.38751 | 105 ft | 30 kts | 82° |
| 2026-04-26 17:29 | 33.93600 | -118.38414 | 104 ft | 18 kts | 84° |
| 2026-04-26 17:29 | 33.93615 | -118.38299 | 103 ft | 13 kts | 59° |
| 2026-04-26 17:30 | 33.93663 | -118.38284 | 103 ft | 5 kts | 354° |
| 2026-04-26 17:30 | 33.93718 | -118.38294 | 103 ft | 9 kts | 333° |
| 2026-04-26 17:30 | 33.93726 | -118.38378 | 103 ft | 19 kts | 263° |
| 2026-04-26 17:30 | 33.93672 | -118.38908 | 106 ft | 105 kts | 263° |
| 2026-04-26 17:31 | 33.93553 | -118.40035 | 271 ft | 154 kts | 263° |
| 2026-04-26 17:31 | 33.93386 | -118.41301 | 1107 ft | 159 kts | 254° |
| 2026-04-26 17:31 | 33.92864 | -118.42420 | 1859 ft | 161 kts | 231° |
| 2026-04-26 17:31 | 33.92160 | -118.43481 | 2714 ft | 173 kts | 233° |
| 2026-04-26 17:32 | 33.91345 | -118.44591 | 3141 ft | 181 kts | 230° |
| 2026-04-26 17:32 | 33.90567 | -118.45778 | 3412 ft | 194 kts | 244° |
| 2026-04-26 17:32 | 33.90221 | -118.47317 | 4438 ft | 201 kts | 275° |
| 2026-04-26 17:32 | 33.90623 | -118.49049 | 5031 ft | 232 kts | 291° |
| 2026-04-26 17:33 | 33.91246 | -118.50925 | 5422 ft | 244 kts | 291° |
| 2026-04-26 17:33 | 33.92070 | -118.52701 | 5677 ft | 248 kts | 311° |
| 2026-04-26 17:33 | 33.93558 | -118.53713 | 5947 ft | 257 kts | 346° |
| 2026-04-26 17:34 | 33.97134 | -118.54023 | 6025 ft | 256 kts | 342° |
| 2026-04-26 17:34 | 33.98895 | -118.54432 | 6012 ft | 256 kts | 347° |
| 2026-04-26 17:34 | 34.00653 | -118.54791 | 6010 ft | 255 kts | 347° |
| 2026-04-26 17:34 | 34.02401 | -118.55157 | 6012 ft | 255 kts | 347° |
| 2026-04-26 17:35 | 34.04142 | -118.55524 | 6014 ft | 255 kts | 347° |
| 2026-04-26 17:35 | 34.05893 | -118.55895 | 6013 ft | 255 kts | 347° |
| 2026-04-26 17:35 | 34.07638 | -118.56267 | 6010 ft | 255 kts | 347° |
| 2026-04-26 17:35 | 34.09385 | -118.56639 | 6010 ft | 255 kts | 347° |
| 2026-04-26 17:36 | 34.11149 | -118.57016 | 6011 ft | 255 kts | 347° |
| 2026-04-26 17:36 | 34.12903 | -118.57391 | 6011 ft | 256 kts | 347° |
| 2026-04-26 17:36 | 34.14650 | -118.57764 | 6012 ft | 256 kts | 347° |
| 2026-04-26 17:36 | 34.16412 | -118.58140 | 6012 ft | 256 kts | 347° |
| 2026-04-26 17:37 | 34.18167 | -118.58515 | 6013 ft | 256 kts | 347° |
| 2026-04-26 17:37 | 34.19931 | -118.58775 | 6030 ft | 258 kts | 357° |
| 2026-04-26 17:37 | 34.21736 | -118.58770 | 6038 ft | 259 kts | 356° |
| 2026-04-26 17:38 | 34.25326 | -118.58836 | 6037 ft | 258 kts | 355° |
| 2026-04-26 17:38 | 34.27119 | -118.58885 | 6037 ft | 258 kts | 355° |
| 2026-04-26 17:38 | 34.28911 | -118.58939 | 6038 ft | 258 kts | 355° |
| 2026-04-26 17:38 | 34.30707 | -118.58995 | 6038 ft | 258 kts | 355° |
| 2026-04-26 17:39 | 34.32514 | -118.59051 | 6037 ft | 259 kts | 355° |
| 2026-04-26 17:39 | 34.34315 | -118.59109 | 6035 ft | 259 kts | 355° |
| 2026-04-26 17:39 | 34.36112 | -118.59166 | 6034 ft | 259 kts | 355° |
| 2026-04-26 17:39 | 34.37922 | -118.59224 | 6035 ft | 259 kts | 355° |
| 2026-04-26 17:40 | 34.39738 | -118.59282 | 6037 ft | 259 kts | 355° |
| 2026-04-26 17:40 | 34.40924 | -118.59320 | 6037 ft | 259 kts | 355° |
| 2026-04-26 17:40 | 34.43318 | -118.59394 | 6029 ft | 252 kts | 357° |
| 2026-04-26 17:40 | 34.44936 | -118.58832 | 6017 ft | 241 kts | 34° |
| 2026-04-26 17:41 | 34.45940 | -118.57260 | 6059 ft | 238 kts | 61° |
| 2026-04-26 17:41 | 34.46651 | -118.55424 | 6107 ft | 240 kts | 65° |
| 2026-04-26 17:41 | 34.46821 | -118.53494 | 6038 ft | 227 kts | 105° |
| 2026-04-26 17:41 | 34.45969 | -118.51967 | 5854 ft | 222 kts | 147° |
| 2026-04-26 17:42 | 34.44557 | -118.51405 | 5510 ft | 211 kts | 177° |
| 2026-04-26 17:42 | 34.43127 | -118.51210 | 5165 ft | 208 kts | 178° |
| 2026-04-26 17:42 | 34.41697 | -118.51034 | 4807 ft | 206 kts | 179° |
| 2026-04-26 17:42 | 34.40292 | -118.50857 | 4639 ft | 195 kts | 179° |
| 2026-04-26 17:43 | 34.38960 | -118.50686 | 4627 ft | 192 kts | 178° |
| 2026-04-26 17:43 | 34.37636 | -118.50519 | 4628 ft | 191 kts | 179° |
| 2026-04-26 17:43 | 34.36355 | -118.50341 | 4524 ft | 174 kts | 178° |
| 2026-04-26 17:43 | 34.35185 | -118.50117 | 4138 ft | 164 kts | 174° |
| 2026-04-26 17:44 | 34.34074 | -118.49903 | 3865 ft | 160 kts | 176° |
| 2026-04-26 17:44 | 34.32970 | -118.49749 | 3644 ft | 160 kts | 186° |
| 2026-04-26 17:44 | 34.31881 | -118.49873 | 3360 ft | 155 kts | 192° |
| 2026-04-26 17:44 | 34.30830 | -118.49949 | 3071 ft | 149 kts | 186° |
| 2026-04-26 17:45 | 34.29799 | -118.49892 | 2763 ft | 146 kts | 178° |
| 2026-04-26 17:45 | 34.28804 | -118.49766 | 2537 ft | 139 kts | 179° |
| 2026-04-26 17:45 | 34.27855 | -118.49662 | 2259 ft | 139 kts | 178° |
| 2026-04-26 17:45 | 34.26903 | -118.49569 | 2053 ft | 133 kts | 180° |
| 2026-04-26 17:46 | 34.25991 | -118.49510 | 1852 ft | 129 kts | 179° |
| 2026-04-26 17:46 | 34.25102 | -118.49430 | 1657 ft | 129 kts | 178° |
| 2026-04-26 17:46 | 34.24217 | -118.49344 | 1465 ft | 128 kts | 180° |
| 2026-04-26 17:46 | 34.23317 | -118.49263 | 1246 ft | 130 kts | 178° |
| 2026-04-26 17:47 | 34.22428 | -118.49174 | 1025 ft | 128 kts | 178° |
| 2026-04-26 17:47 | 34.21835 | -118.49116 | 879 ft | 125 kts | 178° |
| 2026-04-26 17:47 | 34.20768 | -118.49020 | 778 ft | 91 kts | 176° |
| 2026-04-26 17:47 | 34.20358 | -118.48981 | 769 ft | 29 kts | 175° |
| 2026-04-26 17:48 | 34.20268 | -118.48992 | 768 ft | 10 kts | 239° |
| 2026-04-26 17:48 | 34.20265 | -118.49073 | 768 ft | 5 kts | 303° |
| 2026-04-26 17:48 | 34.20306 | -118.49088 | 769 ft | 6 kts | 349° |
| 2026-04-26 17:48 | 34.20351 | -118.49094 | 770 ft | 6 kts | 355° |
| 2026-04-26 17:49 | 34.20396 | -118.49098 | 771 ft | 6 kts | 355° |
| 2026-04-26 17:49 | 34.20452 | -118.49104 | 772 ft | 9 kts | 355° |
| 2026-04-26 17:49 | 34.20524 | -118.49111 | 773 ft | 11 kts | 356° |
| 2026-04-26 17:49 | 34.20608 | -118.49119 | 775 ft | 13 kts | 355° |
| 2026-04-26 17:50 | 34.20709 | -118.49129 | 777 ft | 16 kts | 356° |
| 2026-04-26 17:50 | 34.20814 | -118.49140 | 779 ft | 11 kts | 359° |
| 2026-04-26 17:50 | 34.20877 | -118.49157 | 781 ft | 8 kts | 308° |
| 2026-04-26 17:50 | 34.20853 | -118.49198 | 780 ft | 4 kts | 178° |
| 2026-04-26 17:51 | 34.20851 | -118.49198 | 780 ft | 0 kts | 177° |